createdAt,value
2017-04-05T12:06:25.235Z,26
2017-04-05T12:11:25.166Z,25.64
2017-04-05T12:16:25.139Z,25.94
2017-04-05T12:21:25.156Z,25.94
2017-04-05T12:26:25.293Z,25.81
2017-04-05T12:31:25.231Z,25.22
2017-04-05T12:36:25.019Z,25.42
2017-04-05T12:41:25.029Z,25.26
2017-04-05T12:46:25.007Z,25.44
2017-04-05T12:51:24.990Z,25.01
2017-04-05T12:56:24.974Z,24.85
2017-04-05T13:01:24.734Z,24.87
2017-04-05T13:06:24.960Z,24.45
2017-04-05T13:11:24.959Z,24.45
2017-04-05T13:16:24.960Z,24.4
2017-04-05T13:21:24.948Z,24.24
2017-04-05T13:26:24.966Z,24.22
2017-04-05T13:31:24.939Z,24.26
2017-04-05T13:36:24.941Z,24.22
2017-04-05T13:41:24.624Z,24.03
2017-04-05T13:46:24.614Z,23.74
2017-04-05T13:51:24.914Z,23.55
2017-04-05T13:56:24.912Z,23.44
2017-04-05T14:01:24.927Z,23.09
2017-04-05T14:06:24.586Z,23.56
2017-04-05T14:11:24.866Z,23.84
2017-04-05T14:16:24.555Z,23.74
2017-04-05T14:21:24.843Z,23.84
2017-04-05T14:26:24.837Z,23.56
2017-04-05T14:31:24.890Z,22.81
2017-04-05T14:36:24.906Z,22.71
2017-04-05T14:41:24.799Z,22.78
2017-04-05T14:46:24.786Z,23.26
2017-04-05T14:51:24.136Z,22.99
2017-04-05T14:56:24.859Z,22.41
2017-04-05T15:01:24.722Z,21.62
2017-04-05T15:06:24.706Z,21.25
2017-04-05T15:11:24.702Z,20.79
2017-04-05T15:16:24.692Z,20.61
2017-04-05T15:21:24.659Z,20.48
2017-04-05T15:26:24.644Z,20.74
2017-04-05T15:31:24.611Z,20.93
2017-04-05T15:36:24.617Z,20.83
2017-04-05T15:41:24.586Z,20.82
2017-04-05T15:46:24.550Z,20.64
2017-04-05T15:51:24.549Z,20.46
2017-04-05T15:56:24.524Z,20.19
2017-04-05T16:01:24.485Z,19.7
2017-04-05T16:06:24.468Z,19.45
2017-04-05T16:11:24.451Z,19.45
2017-04-05T16:16:24.441Z,19.32
2017-04-05T16:21:24.418Z,19.23
2017-04-05T16:26:24.409Z,19.09
2017-04-05T16:31:24.406Z,19.05
2017-04-05T16:36:24.342Z,18.89
2017-04-05T16:41:24.336Z,18.81
2017-04-05T16:46:24.311Z,18.65
2017-04-05T16:51:24.279Z,18.5
2017-04-05T16:56:24.252Z,18.31
2017-04-05T17:01:24.231Z,18.19
2017-04-05T17:06:24.194Z,18.13
2017-04-05T17:11:24.125Z,17.96
2017-04-05T17:16:23.767Z,17.76
2017-04-05T17:21:24.008Z,17.6
2017-04-05T17:26:23.927Z,17.58
2017-04-05T17:31:23.869Z,17.45
2017-04-05T17:36:23.801Z,17.31
2017-04-05T17:41:23.732Z,17.24
2017-04-05T17:46:23.675Z,17.18
2017-04-05T17:51:23.350Z,17.18
2017-04-05T17:56:23.540Z,17.02
2017-04-05T18:01:23.472Z,16.9
2017-04-05T18:06:23.413Z,16.91
2017-04-05T18:11:23.331Z,16.85
2017-04-05T18:16:23.284Z,16.77
2017-04-05T18:21:23.307Z,16.8
2017-04-05T18:26:23.191Z,16.7
2017-04-05T18:31:22.780Z,16.73
2017-04-05T18:36:23.316Z,16.66
2017-04-05T18:41:22.984Z,16.63
2017-04-05T18:46:22.883Z,16.72
2017-04-05T18:51:22.536Z,16.72
2017-04-05T18:56:22.781Z,16.74
2017-04-05T19:01:22.718Z,16.73
2017-04-05T19:06:22.668Z,16.69
2017-04-05T19:11:22.580Z,16.63
2017-04-05T20:48:39.659Z,16.54
